Tropical Cyclones
[Index]
Main Index Home Page Stock Weather Photos Extreme Storms Discussion Storm News and Storm Chasing Reports Tropical Cyclones / Hurricanes / Typhoons Weather Data and Links Wild Fires / Bushfires Weather Observation Techniques Weather Picture Catalogue Tornado Pictures and Reports Stock Video Footage and DVDs for sale
Season 1993-1994 Tropical Cyclone PEARL Track Map
Season 1993-1994 Summaries: [BoM-AU] [JTWC-AU] [JTWC-SIO] [JTWC-SPAC] [JTWC-SH]
<<- Previous TC | JTWC 1993-1994 Season | Next TC ->>

click for intensity scale information  Lat/long Grid: Show Hide

 Date Labels: Show Hide

Joint Typhoon Warning Centre Cyclone Data

Name: PEARL

10 Jan 1994 06:00 UTC to 20 Jan 1994 18:00 UTC

    date/time    lat    long     hPa   cat  kts
1994-01-10 06   17.1   123.9                  20          
1994-01-10 12   17.0   123.3                  20          
1994-01-10 18   16.9   122.6                  25          
1994-01-11 00   16.8   121.9                  25          
1994-01-11 06   16.7   121.2                  30          
1994-01-11 12   16.7   120.4                  30          
1994-01-11 18   16.8   119.5                  35          
1994-01-12 00   16.9   118.5            1     45          
1994-01-12 06   17.0   117.5            2     65          
1994-01-12 12   17.1   116.4            3     80          
1994-01-12 18   17.1   115.3            3     80          
1994-01-13 00   17.1   114.1            3     80          
1994-01-13 06   17.0   112.8            3     80          
1994-01-13 12   16.9   111.7            3     80          
1994-01-13 18   16.9   110.5            3     80          
1994-01-14 00   16.9   109.3            3     80          
1994-01-14 06   16.9   108.1            3     80          
1994-01-14 12   16.8   106.9            3     80          
1994-01-14 18   16.7   105.7            3     80          
1994-01-15 00   16.6   104.6            3     80          
1994-01-15 06   16.4   103.5            3     80          
1994-01-15 12   16.3   102.4            3     80          
1994-01-15 18   16.1   101.3            3     80          
1994-01-16 00   16.0   100.1            3     85          
1994-01-16 06   16.0    98.9            3     90          
1994-01-16 12   16.0    97.7            3     90          
1994-01-16 18   16.1    96.5            3     90          
1994-01-17 00   16.2    95.4            3     90          
1994-01-17 06   16.3    94.3            3     90          
1994-01-17 12   16.4    93.3            3     95          
1994-01-17 18   16.5    92.4            3     95          
1994-01-18 00   16.5    91.5            3     90          
1994-01-18 06   16.6    90.7            3     85          
1994-01-18 12   16.9    89.9            3     80          
1994-01-18 18   17.3    89.2            3     75          
1994-01-19 00   17.9    88.7            2     70          
1994-01-19 06   18.5    88.2            2     60          
1994-01-19 12   19.4    88.0            1     50          
1994-01-19 18   20.3    87.8            1     40          
1994-01-20 00   21.3    87.7                  35          
1994-01-20 06   22.4    87.6                  35          
1994-01-20 12   23.5    88.1                  30          
1994-01-20 18   24.6    88.8                  30          
Winds are 1-min average.

Tropical cyclone tracks developed by Michael Bath using data from the Joint Typhoon Warning Centre Best Tracks and Google Maps.


[Australian Severe Weather index] [Copyright Notice] [Email Contacts] [Search This Site] [Privacy Policy]
Document: tropical_cyclone_pearl.htm Updated: 18 September 2016